Time;durP1;ratioP1;P1;durP2;ratioP2;P2;SDS_P1;SDS_P2;PMS_P1;PMS_P2;Temp;Humidity;BMP_temperature;BMP_pressure;BME280_temperature;BME280_humidity;BME280_pressure;Samples;Min_cycle;Max_cycle;Signal;HPM_P1;HPM_P2
2021/04/09 00:01:25;;;;;;;21.55;11.85;;;;;;;5.29;100.00;101654.53;6110756;23;20010;-82
2021/04/09 00:03:50;;;;;;;23.85;10.70;;;;;;;5.22;100.00;101653.72;6138350;23;20018;-82
2021/04/09 00:06:18;;;;;;;16.55;11.18;;;;;;;5.22;100.00;101650.22;6137294;23;20005;-82
2021/04/09 00:08:43;;;;;;;16.75;10.82;;;;;;;5.28;100.00;101643.19;6138784;23;20002;-82
2021/04/09 00:11:09;;;;;;;16.75;10.55;;;;;;;5.20;100.00;101640.63;6138858;23;20029;-83
2021/04/09 00:13:34;;;;;;;16.95;10.57;;;;;;;5.22;100.00;101645.88;6138419;23;20049;-82
2021/04/09 00:16:00;;;;;;;22.25;10.70;;;;;;;5.14;100.00;101642.44;6138107;23;20441;-82
2021/04/09 00:18:25;;;;;;;18.20;10.63;;;;;;;5.09;100.00;101637.22;6138482;23;20002;-83
2021/04/09 00:20:51;;;;;;;19.90;10.02;;;;;;;5.09;100.00;101634.59;6139409;23;20001;-84
2021/04/09 00:23:16;;;;;;;15.70;10.48;;;;;;;5.03;100.00;101632.06;6113797;23;20078;-83
2021/04/09 00:25:41;;;;;;;16.10;10.55;;;;;;;5.03;100.00;101633.81;6140649;23;20005;-84
2021/04/09 00:28:07;;;;;;;19.75;10.95;;;;;;;5.06;100.00;101632.00;6114712;23;20001;-84
2021/04/09 00:30:32;;;;;;;20.17;11.25;;;;;;;4.95;100.00;101628.63;6138654;23;20032;-84
2021/04/09 00:32:58;;;;;;;21.52;11.63;;;;;;;5.00;100.00;101628.59;6137439;23;20085;-84
2021/04/09 00:35:23;;;;;;;18.58;10.93;;;;;;;5.01;100.00;101632.94;6137186;23;20005;-84
2021/04/09 00:37:50;;;;;;;16.80;10.98;;;;;;;4.96;100.00;101622.50;6112449;23;20076;-83
2021/04/09 00:40:16;;;;;;;15.00;10.00;;;;;;;4.95;100.00;101620.75;6138443;23;20002;-84
2021/04/09 00:42:43;;;;;;;20.23;10.82;;;;;;;4.87;100.00;101612.09;6113080;23;20013;-84
2021/04/09 00:45:10;;;;;;;18.95;10.73;;;;;;;4.83;100.00;101623.50;6138968;23;20002;-83
2021/04/09 00:47:36;;;;;;;19.65;11.70;;;;;;;4.86;100.00;101610.34;6112629;23;20002;-83
2021/04/09 00:50:03;;;;;;;18.90;10.45;;;;;;;4.93;100.00;101612.94;6112647;23;20037;-82
2021/04/09 00:52:31;;;;;;;19.70;11.48;;;;;;;4.85;100.00;101606.88;6111613;23;20005;-82
2021/04/09 00:54:58;;;;;;;20.25;10.77;;;;;;;4.93;100.00;101615.53;6137194;23;20012;-82
2021/04/09 00:57:24;;;;;;;18.73;11.27;;;;;;;4.84;100.00;101606.91;6138888;23;20428;-82
2021/04/09 00:59:50;;;;;;;18.52;11.25;;;;;;;4.82;100.00;101609.53;6138920;23;20130;-82
2021/04/09 01:02:15;;;;;;;20.23;10.90;;;;;;;4.77;100.00;101611.31;6137752;23;20044;-82
2021/04/09 01:04:41;;;;;;;17.48;10.27;;;;;;;4.78;100.00;101613.06;6142687;23;20026;-80
2021/04/09 01:07:09;;;;;;;20.38;10.75;;;;;;;4.86;100.00;101602.50;6133429;23;20006;-83
2021/04/09 01:09:35;;;;;;;26.30;11.73;;;;;;;4.73;100.00;101614.84;6127552;23;20081;-81
2021/04/09 01:12:01;;;;;;;18.23;9.88;;;;;;;4.76;100.00;101600.84;6100789;23;20002;-81
2021/04/09 01:14:26;;;;;;;16.52;10.20;;;;;;;4.80;100.00;101592.09;6099866;23;20005;-82
2021/04/09 01:17:17;;;;;;;17.90;9.70;;;;;;;4.74;100.00;101590.38;6101170;23;20778;-81
2021/04/09 01:19:48;;;;;;;17.50;10.40;;;;;;;4.76;100.00;101601.72;6100586;23;20005;-82
2021/04/09 01:22:14;;;;;;;18.98;11.05;;;;;;;4.60;100.00;101606.19;6101667;23;20006;-84
2021/04/09 01:25:03;;;;;;;20.02;11.50;;;;;;;4.68;100.00;101606.16;6103403;23;20009;-84
2021/04/09 01:27:54;;;;;;;17.75;9.52;;;;;;;4.56;100.00;101609.72;6101428;23;20124;-81
2021/04/09 01:30:54;;;;;;;17.75;9.77;;;;;;;4.60;100.00;101600.09;6099729;23;20072;-81
2021/04/09 01:33:24;;;;;;;18.40;10.43;;;;;;;4.64;100.00;101596.59;6124422;23;20002;-81
2021/04/09 01:35:55;;;;;;;20.90;10.45;;;;;;;4.59;100.00;101585.28;6098934;23;20010;-81
2021/04/09 01:38:24;;;;;;;21.33;11.23;;;;;;;4.51;100.00;101589.69;6126556;23;20420;-81
2021/04/09 01:40:52;;;;;;;19.38;11.00;;;;;;;4.59;100.00;101585.28;6125640;23;20332;-81
2021/04/09 01:43:20;;;;;;;22.58;11.00;;;;;;;4.52;100.00;101586.19;6123336;23;20077;-81
2021/04/09 01:46:05;;;;;;;14.32;10.77;;;;;;;4.56;100.00;101578.28;6124904;23;20008;-81
2021/04/09 01:48:38;;;;;;;16.30;10.23;;;;;;;4.60;100.00;101573.91;6128499;23;20078;-81
2021/04/09 01:51:07;;;;;;;17.63;10.80;;;;;;;4.59;100.00;101573.06;6128213;23;20344;-81
2021/04/09 01:53:34;;;;;;;18.85;10.45;;;;;;;4.45;100.00;101576.66;6103071;23;20671;-82
2021/04/09 01:56:00;;;;;;;22.52;12.23;;;;;;;4.58;100.00;101581.78;6102824;23;20002;-81
2021/04/09 01:58:27;;;;;;;18.33;10.68;;;;;;;4.53;100.00;101570.50;6130185;23;20440;-81
2021/04/09 02:00:53;;;;;;;17.52;10.52;;;;;;;4.58;100.00;101557.38;6103253;23;20132;-81
2021/04/09 02:03:23;;;;;;;18.17;9.93;;;;;;;4.71;100.00;101561.59;6129155;23;20009;-82
2021/04/09 02:05:50;;;;;;;19.58;10.23;;;;;;;4.74;100.00;101563.34;6098286;23;20010;-81
2021/04/09 02:08:16;;;;;;;17.90;10.68;;;;;;;4.71;100.00;101560.72;6073643;23;20364;-81
2021/04/09 02:10:42;;;;;;;19.92;9.18;;;;;;;4.73;100.00;101551.13;6098614;23;20002;-81
2021/04/09 02:13:08;;;;;;;15.93;9.10;;;;;;;4.73;100.00;101556.38;6097736;23;20002;-81
2021/04/09 02:15:34;;;;;;;19.08;9.52;;;;;;;4.78;100.00;101555.44;6072021;23;20093;-81
2021/04/09 02:18:00;;;;;;;21.50;10.13;;;;;;;4.76;100.00;101551.94;6100159;23;20018;-81
2021/04/09 02:20:25;;;;;;;20.23;9.38;;;;;;;4.75;100.00;101555.47;6075340;23;20006;-82
2021/04/09 02:22:52;;;;;;;25.10;10.55;;;;;;;4.81;100.00;101551.91;6078185;23;20010;-81
2021/04/09 02:25:23;;;;;;;16.02;10.25;;;;;;;4.85;100.00;101551.88;6097125;23;20416;-82
2021/04/09 02:27:50;;;;;;;19.48;9.82;;;;;;;4.86;100.00;101545.75;6073432;23;20131;-82
2021/04/09 02:30:17;;;;;;;16.70;9.23;;;;;;;4.81;100.00;101551.91;6094236;23;20450;-82
2021/04/09 02:32:43;;;;;;;21.73;9.70;;;;;;;4.92;100.00;101543.09;6070899;23;20002;-82
2021/04/09 02:35:10;;;;;;;20.00;10.15;;;;;;;4.84;100.00;101531.81;6095434;23;20097;-82
2021/04/09 02:37:39;;;;;;;20.98;9.98;;;;;;;4.75;100.00;101534.50;6095611;23;20003;-81
2021/04/09 02:40:09;;;;;;;18.13;9.95;;;;;;;4.79;100.00;101525.75;6073825;23;20197;-83
2021/04/09 02:42:35;;;;;;;19.92;9.93;;;;;;;4.84;100.00;101525.69;6075850;23;20052;-83
2021/04/09 02:45:02;;;;;;;17.92;10.30;;;;;;;4.83;100.00;101531.81;6073769;23;20002;-82
2021/04/09 02:47:29;;;;;;;24.35;10.18;;;;;;;4.78;100.00;101529.25;6101657;23;19999;-83
2021/04/09 02:50:03;;;;;;;21.92;10.65;;;;;;;4.80;100.00;101530.09;6098802;23;20010;-83
2021/04/09 02:52:38;;;;;;;20.10;10.23;;;;;;;4.77;100.00;101538.00;6100057;23;20034;-83
2021/04/09 02:55:14;;;;;;;17.52;8.57;;;;;;;4.74;100.00;101527.53;6074317;23;20010;-83
2021/04/09 02:57:41;;;;;;;14.25;9.30;;;;;;;4.67;100.00;101521.50;6099729;23;20033;-83
2021/04/09 03:00:08;;;;;;;16.80;9.45;;;;;;;4.65;100.00;101523.25;6097981;23;20070;-82
2021/04/09 03:02:34;;;;;;;17.60;9.63;;;;;;;4.67;100.00;101513.66;6099843;23;20002;-82
2021/04/09 03:05:01;;;;;;;15.38;9.93;;;;;;;4.66;100.00;101511.88;6094473;23;20041;-82
2021/04/09 03:07:26;;;;;;;19.35;9.88;;;;;;;4.63;100.00;101522.41;6102427;23;20005;-83
2021/04/09 03:09:52;;;;;;;17.73;10.30;;;;;;;4.58;100.00;101505.88;6129528;23;20008;-82
2021/04/09 03:12:19;;;;;;;19.48;9.68;;;;;;;4.61;100.00;101515.44;6125957;23;20002;-82
2021/04/09 03:14:47;;;;;;;20.20;10.70;;;;;;;4.59;100.00;101499.75;6101891;23;20133;-83
2021/04/09 03:17:26;;;;;;;21.15;11.27;;;;;;;4.54;100.00;101506.78;6128618;23;20331;-83
2021/04/09 03:19:51;;;;;;;17.63;10.32;;;;;;;4.57;100.00;101506.75;6129367;23;20006;-82
2021/04/09 03:22:16;;;;;;;18.00;10.18;;;;;;;4.52;100.00;101499.78;6102627;23;20010;-82
2021/04/09 03:24:42;;;;;;;22.00;9.63;;;;;;;4.58;100.00;101510.25;6127372;23;19998;-82
2021/04/09 03:27:09;;;;;;;24.52;11.30;;;;;;;4.47;100.00;101515.56;6100590;23;20006;-83
2021/04/09 03:29:34;;;;;;;16.70;10.20;;;;;;;4.56;100.00;101509.38;6129658;23;20002;-83
2021/04/09 03:32:00;;;;;;;19.52;10.75;;;;;;;4.50;100.00;101507.69;6102018;23;20009;-83
2021/04/09 03:34:25;;;;;;;22.73;11.38;;;;;;;4.47;100.00;101498.97;6128022;23;20719;-83
2021/04/09 03:36:51;;;;;;;21.98;10.88;;;;;;;4.40;100.00;101498.16;6099253;23;20010;-82
2021/04/09 03:39:16;;;;;;;18.38;10.52;;;;;;;4.33;100.00;101502.59;6130795;23;20025;-82
2021/04/09 03:41:41;;;;;;;21.17;11.18;;;;;;;4.33;100.00;101486.03;6129286;23;20069;-82
2021/04/09 03:44:06;;;;;;;21.88;11.50;;;;;;;4.31;100.00;101483.41;6102382;23;20010;-82
2021/04/09 03:46:32;;;;;;;23.95;11.35;;;;;;;4.32;100.00;101482.53;6101802;23;20013;-83
2021/04/09 03:48:57;;;;;;;20.58;11.30;;;;;;;4.29;100.00;101479.06;6131171;23;20002;-83
2021/04/09 03:51:22;;;;;;;19.42;11.32;;;;;;;4.19;100.00;101477.41;6105825;23;20227;-82
2021/04/09 03:53:48;;;;;;;21.42;11.23;;;;;;;4.25;100.00;101478.22;6130308;23;20002;-80
2021/04/09 03:56:13;;;;;;;20.58;10.88;;;;;;;4.18;100.00;101471.31;6101486;23;20032;-82
2021/04/09 03:58:38;;;;;;;17.33;11.50;;;;;;;4.15;100.00;101472.19;6128807;23;20006;-82
2021/04/09 04:01:03;;;;;;;17.90;10.90;;;;;;;4.14;100.00;101475.69;6128200;23;20016;-82
2021/04/09 04:03:29;;;;;;;22.00;11.75;;;;;;;4.09;100.00;101474.88;6102622;23;20006;-84
2021/04/09 04:05:54;;;;;;;20.58;11.50;;;;;;;3.97;100.00;101469.75;6102009;23;20009;-84
2021/04/09 04:08:19;;;;;;;19.58;10.90;;;;;;;4.07;100.00;101479.25;6131239;23;20439;-83
2021/04/09 04:10:45;;;;;;;22.77;10.85;;;;;;;4.07;100.00;101476.63;6128444;23;20423;-84
2021/04/09 04:13:10;;;;;;;21.15;10.57;;;;;;;4.00;100.00;101479.28;6131323;23;20056;-84
2021/04/09 04:15:35;;;;;;;16.20;10.63;;;;;;;3.95;100.00;101468.88;6132988;23;20424;-82
2021/04/09 04:18:00;;;;;;;21.83;11.60;;;;;;;4.00;100.00;101469.69;6129586;23;20006;-82
2021/04/09 04:20:28;;;;;;;20.98;11.52;;;;;;;3.92;100.00;101463.69;6127758;23;20031;-81
2021/04/09 04:22:53;;;;;;;20.65;11.32;;;;;;;3.93;100.00;101480.22;6128227;23;20082;-82
2021/04/09 04:25:18;;;;;;;22.55;12.18;;;;;;;3.81;100.00;101476.78;6127444;23;20009;-81
2021/04/09 04:27:44;;;;;;;23.52;13.02;;;;;;;3.77;100.00;101469.88;6101929;23;20331;-81
2021/04/09 04:30:10;;;;;;;21.75;12.52;;;;;;;3.72;100.00;101471.66;6128609;23;20515;-81
2021/04/09 04:32:35;;;;;;;22.60;12.23;;;;;;;3.72;100.00;101453.34;6127495;23;20588;-81
2021/04/09 04:35:00;;;;;;;23.05;11.60;;;;;;;3.81;100.00;101462.84;6101831;23;20033;-80
2021/04/09 04:37:28;;;;;;;21.73;12.15;;;;;;;3.81;100.00;101458.50;6126104;23;20070;-82
2021/04/09 04:39:53;;;;;;;18.75;11.02;;;;;;;3.77;100.00;101462.03;6128251;23;20052;-82
2021/04/09 04:42:19;;;;;;;20.02;11.48;;;;;;;3.79;100.00;101446.31;6127438;23;20013;-82
2021/04/09 04:44:44;;;;;;;17.63;10.73;;;;;;;3.81;100.00;101445.41;6102927;23;20013;-83
2021/04/09 04:47:09;;;;;;;23.75;12.30;;;;;;;3.78;100.00;101440.22;6126113;23;20025;-82
2021/04/09 04:49:35;;;;;;;22.38;11.40;;;;;;;3.85;100.00;101444.53;6126718;23;20040;-81
2021/04/09 04:52:00;;;;;;;20.80;12.27;;;;;;;3.85;100.00;101449.75;6101416;23;20484;-81
2021/04/09 04:54:25;;;;;;;18.77;11.70;;;;;;;3.84;100.00;101453.25;6126452;23;20463;-81
2021/04/09 04:56:51;;;;;;;25.40;12.05;;;;;;;3.82;100.00;101449.78;6118350;23;20013;-83
2021/04/09 04:59:17;;;;;;;21.55;11.73;;;;;;;3.76;100.00;101446.31;6123096;23;20344;-83
2021/04/09 05:01:42;;;;;;;19.33;11.07;;;;;;;3.86;100.00;101448.88;6095302;23;20010;-82
2021/04/09 05:04:07;;;;;;;26.73;11.45;;;;;;;3.84;100.00;101439.31;6120295;23;20022;-83
2021/04/09 05:06:32;;;;;;;22.65;11.70;;;;;;;3.86;100.00;101443.63;6097766;23;20442;-82
2021/04/09 05:08:58;;;;;;;21.67;10.23;;;;;;;3.88;100.00;101443.66;6124441;23;20012;-81
2021/04/09 05:11:23;;;;;;;24.13;11.75;;;;;;;3.88;100.00;101443.66;6094134;23;20393;-82
2021/04/09 05:13:49;;;;;;;20.73;11.18;;;;;;;3.89;100.00;101442.75;6096115;23;20160;-82
2021/04/09 05:16:14;;;;;;;20.52;8.77;;;;;;;4.03;100.00;101435.69;6121568;23;20420;-83
2021/04/09 05:18:39;;;;;;;27.27;12.07;;;;;;;3.95;100.00;101431.38;6097608;23;20064;-83
2021/04/09 05:21:06;;;;;;;26.98;12.18;;;;;;;3.95;100.00;101429.63;6100161;23;20006;-82
2021/04/09 05:23:31;;;;;;;25.27;11.80;;;;;;;3.96;100.00;101431.38;6101432;23;20506;-81
2021/04/09 05:25:57;;;;;;;24.02;11.27;;;;;;;3.98;100.00;101434.84;6100438;23;20003;-81
2021/04/09 05:28:22;;;;;;;17.50;10.57;;;;;;;4.08;100.00;101439.13;6096322;23;20048;-84
2021/04/09 05:30:47;;;;;;;17.67;9.98;;;;;;;4.10;100.00;101433.88;6121011;23;20419;-82
2021/04/09 05:33:13;;;;;;;18.75;11.00;;;;;;;4.18;100.00;101445.16;6123435;23;20423;-81
2021/04/09 05:35:38;;;;;;;21.48;10.73;;;;;;;4.15;100.00;101438.19;6125049;23;20742;-81
2021/04/09 05:38:03;;;;;;;19.52;9.73;;;;;;;4.19;100.00;101438.16;6124154;23;20016;-81
2021/04/09 05:40:29;;;;;;;19.77;10.38;;;;;;;4.24;100.00;101437.25;6124161;23;20040;-81
2021/04/09 05:43:03;;;;;;;25.52;10.35;;;;;;;4.29;100.00;101437.22;6125386;23;20040;-80
2021/04/09 05:45:29;;;;;;;26.35;11.13;;;;;;;4.32;100.00;101427.59;6101581;23;20005;-79
2021/04/09 05:47:58;;;;;;;27.02;10.38;;;;;;;4.37;100.00;101433.66;6128131;23;20006;-81
2021/04/09 05:50:24;;;;;;;18.83;10.05;;;;;;;4.40;100.00;101433.59;6102221;23;20651;-82
2021/04/09 05:52:49;;;;;;;16.73;10.43;;;;;;;4.41;100.00;101424.84;6125934;23;20006;-81
2021/04/09 05:55:14;;;;;;;19.55;9.82;;;;;;;4.41;100.00;101429.22;6126522;23;20037;-81
2021/04/09 05:57:40;;;;;;;18.70;9.48;;;;;;;4.52;100.00;101426.50;6126531;23;20005;-81
2021/04/09 06:00:06;;;;;;;14.65;8.15;;;;;;;4.56;100.00;101430.81;6099001;23;20006;-81
2021/04/09 06:02:32;;;;;;;19.67;9.80;;;;;;;4.62;100.00;101430.78;6124256;23;20510;-81
2021/04/09 06:04:58;;;;;;;17.60;9.25;;;;;;;4.70;100.00;101436.78;6064053;23;828851;-81
2021/04/09 06:07:23;;;;;;;18.88;8.77;;;;;;;4.79;100.00;101435.84;6094764;23;20022;-81
2021/04/09 06:09:49;;;;;;;14.48;9.05;;;;;;;4.73;100.00;101428.06;6124628;23;20006;-81
2021/04/09 06:12:14;;;;;;;16.42;9.02;;;;;;;4.78;100.00;101440.22;6119960;23;20467;-81
2021/04/09 06:14:39;;;;;;;14.55;8.35;;;;;;;4.93;100.00;101437.41;6122944;23;20107;-81
2021/04/09 06:17:05;;;;;;;14.52;8.60;;;;;;;4.91;100.00;101433.91;6098709;23;20009;-81
2021/04/09 06:19:31;;;;;;;22.17;8.15;;;;;;;4.96;100.00;101422.53;6122587;23;20020;-81
2021/04/09 06:21:56;;;;;;;14.23;7.78;;;;;;;5.10;100.00;101429.34;6123513;23;20028;-82
2021/04/09 06:24:21;;;;;;;15.73;8.57;;;;;;;5.02;100.00;101420.72;6098565;23;20230;-82
2021/04/09 06:26:47;;;;;;;20.38;7.82;;;;;;;5.06;100.00;101429.38;6126743;23;20009;-83
2021/04/09 06:29:12;;;;;;;19.02;9.02;;;;;;;5.14;100.00;101431.03;6099697;23;20466;-83
2021/04/09 06:31:41;;;;;;;16.08;7.65;;;;;;;5.16;100.00;101425.78;6126854;23;20057;-83
2021/04/09 06:34:07;;;;;;;21.75;8.35;;;;;;;5.22;100.00;101428.34;6114843;23;20021;-82
2021/04/09 06:36:32;;;;;;;17.30;8.23;;;;;;;5.28;100.00;101432.63;6096161;23;20010;-82
2021/04/09 06:38:57;;;;;;;26.13;9.68;;;;;;;5.36;100.00;101433.38;6099339;23;20005;-83
2021/04/09 06:41:23;;;;;;;15.38;8.40;;;;;;;5.34;100.00;101432.53;6126841;23;20006;-82
2021/04/09 06:43:49;;;;;;;17.10;8.45;;;;;;;5.44;100.00;101440.25;6100704;23;20006;-81
2021/04/09 06:46:15;;;;;;;23.80;7.90;;;;;;;5.46;100.00;101427.97;6125917;23;20006;-81
2021/04/09 06:48:42;;;;;;;16.42;8.20;;;;;;;5.66;100.00;101427.69;6124875;23;20615;-81
2021/04/09 06:51:09;;;;;;;15.77;8.25;;;;;;;5.70;100.00;101433.78;6098046;23;20010;-81
2021/04/09 06:53:34;;;;;;;19.45;9.77;;;;;;;5.82;100.00;101433.56;6121888;23;20002;-81
2021/04/09 06:56:00;;;;;;;15.02;7.75;;;;;;;5.86;100.00;101434.41;6097467;23;20056;-81
2021/04/09 06:58:26;;;;;;;12.77;8.23;;;;;;;5.95;100.00;101436.91;6125055;23;20515;-82
2021/04/09 07:00:58;;;;;;;17.38;7.85;;;;;;;5.95;100.00;101429.91;6127605;23;20056;-83
2021/04/09 07:03:23;;;;;;;14.80;8.05;;;;;;;6.08;100.00;101434.97;6098644;23;20006;-82
2021/04/09 07:05:49;;;;;;;15.77;7.90;;;;;;;6.13;100.00;101433.13;6097458;23;20103;-82
2021/04/09 07:08:14;;;;;;;16.98;7.78;;;;;;;6.13;100.00;101438.38;6125099;23;20014;-82
2021/04/09 07:10:40;;;;;;;13.05;6.63;;;;;;;6.23;100.00;101432.09;6099705;23;20013;-81
2021/04/09 07:13:08;;;;;;;16.30;7.53;;;;;;;5.99;100.00;101428.09;6126057;23;20060;-82
2021/04/09 07:15:42;;;;;;;12.90;7.18;;;;;;;6.15;100.00;101423.47;6126554;23;20009;-82
2021/04/09 07:18:09;;;;;;;16.48;8.48;;;;;;;6.20;100.00;101419.88;6098556;23;20392;-82
2021/04/09 07:20:36;;;;;;;13.90;6.82;;;;;;;6.25;100.00;101414.53;6098473;23;20045;-81
2021/04/09 07:23:05;;;;;;;13.18;8.13;;;;;;;6.20;100.00;101425.13;6123556;23;20013;-82
2021/04/09 07:25:56;;;;;;;11.93;8.50;;;;;;;6.33;100.00;101414.44;6098458;23;20503;-83
2021/04/09 07:28:23;;;;;;;12.45;7.65;;;;;;;6.34;100.00;101426.66;6119217;23;20014;-82
2021/04/09 07:30:54;;;;;;;12.43;7.65;;;;;;;6.36;100.00;101430.97;6127885;23;20009;-82
2021/04/09 07:33:29;;;;;;;18.42;9.95;;;;;;;6.34;100.00;101431.91;6106077;23;20071;-82
2021/04/09 07:36:01;;;;;;;15.10;7.95;;;;;;;6.25;100.00;101425.03;6129566;23;20090;-81
2021/04/09 07:38:28;;;;;;;15.20;7.95;;;;;;;6.20;100.00;101432.13;6122202;23;20064;-82
2021/04/09 07:41:04;;;;;;;16.88;8.68;;;;;;;6.38;100.00;101431.81;6098373;23;20070;-83
2021/04/09 07:43:32;;;;;;;32.97;9.13;;;;;;;6.30;100.00;101440.72;6080256;23;20013;-81
2021/04/09 07:46:00;;;;;;;17.75;9.18;;;;;;;6.28;100.00;101439.91;6128000;23;20005;-82
2021/04/09 07:48:43;;;;;;;19.52;9.63;;;;;;;6.43;100.00;101442.25;6098383;23;20018;-81
2021/04/09 07:51:18;;;;;;;19.52;9.18;;;;;;;6.66;100.00;101437.44;6123351;23;20006;-82
2021/04/09 07:53:45;;;;;;;36.10;11.85;;;;;;;6.43;100.00;101431.75;6098974;23;20014;-82
2021/04/09 07:56:13;;;;;;;25.08;9.25;;;;;;;6.52;100.00;101434.19;6124407;23;20002;-81
2021/04/09 07:58:40;;;;;;;20.33;10.13;;;;;;;6.59;100.00;101432.31;6124187;23;20053;-82
2021/04/09 08:01:19;;;;;;;17.08;10.10;;;;;;;6.77;100.00;101436.34;6123250;23;20010;-82
2021/04/09 08:03:45;;;;;;;30.95;11.15;;;;;;;7.07;100.00;101434.88;6117766;23;20018;-82
2021/04/09 08:06:20;;;;;;;15.90;9.45;;;;;;;7.42;100.00;101444.66;6108986;23;20037;-82
2021/04/09 08:08:45;;;;;;;14.10;8.82;;;;;;;7.14;100.00;101447.88;6099263;23;20025;-82
2021/04/09 08:11:18;;;;;;;19.23;9.00;;;;;;;7.13;100.00;101442.63;6125667;23;20002;-82
2021/04/09 08:13:43;;;;;;;18.35;8.52;;;;;;;7.34;100.00;101444.84;6099173;23;20247;-81
2021/04/09 08:16:29;;;;;;;17.77;9.10;;;;;;;7.33;100.00;101440.47;6125154;23;20077;-82
2021/04/09 08:19:04;;;;;;;16.88;8.20;;;;;;;7.36;100.00;101439.53;6099954;23;20025;-81
2021/04/09 08:21:32;;;;;;;15.13;8.65;;;;;;;7.27;100.00;101438.81;6125307;23;20009;-82
2021/04/09 08:23:58;;;;;;;19.27;8.68;;;;;;;7.58;100.00;101446.06;6126828;23;20069;-82
2021/04/09 08:26:24;;;;;;;17.25;8.95;;;;;;;7.60;100.00;101440.75;6101122;23;20511;-81
2021/04/09 08:28:51;;;;;;;18.52;9.45;;;;;;;7.65;100.00;101428.38;6102762;23;20005;-81
2021/04/09 08:31:17;;;;;;;12.55;7.53;;;;;;;7.56;100.00;101439.97;6119118;23;20065;-82
2021/04/09 08:33:43;;;;;;;14.82;7.75;;;;;;;7.86;100.00;101433.13;6099380;23;20012;-81
2021/04/09 08:36:09;;;;;;;13.85;7.22;;;;;;;7.69;100.00;101436.16;6125049;23;20010;-81
2021/04/09 08:38:35;;;;;;;14.70;7.53;;;;;;;7.78;100.00;101441.22;6126866;23;20103;-82
2021/04/09 08:41:00;;;;;;;14.90;8.40;;;;;;;7.80;100.00;101446.44;6101604;23;20006;-81
2021/04/09 08:43:26;;;;;;;24.30;7.45;;;;;;;7.77;100.00;101444.72;6128821;23;20017;-80
2021/04/09 08:45:51;;;;;;;23.70;6.78;;;;;;;7.56;100.00;101444.34;6126997;23;19998;-80
2021/04/09 08:48:18;;;;;;;14.13;7.78;;;;;;;7.82;100.00;101436.72;6100216;23;20073;-81
2021/04/09 08:50:43;;;;;;;18.02;8.18;;;;;;;8.15;100.00;101445.59;6101756;23;20073;-82
2021/04/09 08:53:09;;;;;;;19.52;8.25;;;;;;;8.22;100.00;101443.66;6126879;23;20005;-81
2021/04/09 08:55:38;;;;;;;16.38;8.25;;;;;;;8.13;100.00;101443.88;6124497;23;20016;-81
2021/04/09 08:58:16;;;;;;;16.38;7.28;;;;;;;8.04;100.00;101445.84;6101242;23;20006;-81
2021/04/09 09:00:42;;;;;;;13.48;5.95;;;;;;;8.00;100.00;101444.19;6125908;23;20072;-80
2021/04/09 09:03:22;;;;;;;16.48;6.78;;;;;;;8.20;100.00;101445.47;6099663;23;20010;-81
2021/04/09 09:05:55;;;;;;;15.30;7.13;;;;;;;8.42;100.00;101451.94;6125577;23;20033;-81
2021/04/09 09:08:20;;;;;;;21.65;7.75;;;;;;;8.12;100.00;101445.66;6100058;23;20008;-81
2021/04/09 09:10:46;;;;;;;25.25;7.10;;;;;;;8.55;100.00;101447.25;6101413;23;20001;-82
2021/04/09 09:13:14;;;;;;;18.25;6.15;;;;;;;8.53;100.00;101455.19;6124220;23;20006;-82
2021/04/09 09:15:45;;;;;;;17.67;7.13;;;;;;;8.55;100.00;101445.47;6126119;23;20006;-81
2021/04/09 09:18:20;;;;;;;18.85;6.20;;;;;;;8.88;100.00;101442.81;6127781;23;20002;-81
2021/04/09 09:21:20;;;;;;;14.95;6.55;;;;;;;8.85;100.00;101435.00;6099853;23;20018;-81
2021/04/09 09:24:02;;;;;;;13.70;6.97;;;;;;;9.06;100.00;101431.75;6133201;23;20002;-84
2021/04/09 09:26:48;;;;;;;22.55;5.95;;;;;;;9.04;100.00;101448.53;6106051;23;20002;-81
2021/04/09 09:29:27;;;;;;;19.30;6.72;;;;;;;8.93;100.00;101440.03;6101517;23;20006;-82
2021/04/09 09:32:06;;;;;;;10.45;5.45;;;;;;;9.24;100.00;101437.41;6126019;23;20069;-81
2021/04/09 09:34:35;;;;;;;10.50;5.85;;;;;;;9.16;100.00;101442.03;6099337;23;20012;-82
2021/04/09 09:37:20;;;;;;;11.70;6.53;;;;;;;9.39;100.00;101441.34;6098987;23;20336;-81
2021/04/09 09:39:48;;;;;;;14.93;5.40;;;;;;;9.70;100.00;101428.09;6100048;23;20018;-82
2021/04/09 09:42:26;;;;;;;8.05;5.20;;;;;;;9.36;100.00;101431.78;6097852;23;20428;-81
2021/04/09 09:44:53;;;;;;;13.77;6.32;;;;;;;9.43;100.00;101437.72;6125497;23;20056;-81
2021/04/09 09:47:21;;;;;;;11.48;5.68;;;;;;;9.70;100.00;101434.25;6126475;23;20002;-82
2021/04/09 09:53:00;;;;;;;18.20;6.85;;;;;;;9.77;100.00;101429.63;6125647;23;20013;-82
2021/04/09 09:55:36;;;;;;;12.73;6.18;;;;;;;10.06;100.00;101434.84;6125347;23;20025;-81
2021/04/09 09:58:10;;;;;;;13.20;6.28;;;;;;;9.55;100.00;101440.84;6125553;23;20053;-82
2021/04/09 10:00:41;;;;;;;12.75;6.53;;;;;;;9.71;100.00;101435.09;6126642;23;20010;-82
2021/04/09 10:03:33;;;;;;;11.88;6.28;;;;;;;9.86;100.00;101438.13;6097958;23;20751;-82
2021/04/09 10:06:03;;;;;;;12.80;5.70;;;;;;;10.24;100.00;101436.06;6089987;23;20025;-82
2021/04/09 10:08:33;;;;;;;11.60;6.38;;;;;;;10.46;100.00;101438.81;6096205;23;20014;-82
2021/04/09 10:11:01;;;;;;;11.90;6.32;;;;;;;10.87;100.00;101439.13;6122345;23;20002;-82
2021/04/09 10:17:00;;;;;;;14.05;6.25;;;;;;;10.96;100.00;101436.16;6060585;23;20963;-83
2021/04/09 10:19:26;;;;;;;14.48;6.35;;;;;;;10.94;100.00;101435.34;6090847;23;20029;-82
2021/04/09 10:21:52;;;;;;;13.95;5.80;;;;;;;10.95;100.00;101423.00;6066688;23;20093;-83
2021/04/09 10:24:20;;;;;;;10.88;5.38;;;;;;;11.20;99.27;101433.53;6092342;23;20006;-80
2021/04/09 10:27:02;;;;;;;11.60;5.45;;;;;;;11.44;94.38;101432.56;6092774;23;20002;-81
2021/04/09 10:29:35;;;;;;;11.07;5.55;;;;;;;12.33;89.58;101431.69;6091540;23;20010;-81
2021/04/09 10:32:02;;;;;;;16.95;6.13;;;;;;;12.08;90.92;101426.53;6068093;23;20009;-82
2021/04/09 10:34:33;;;;;;;14.93;5.88;;;;;;;12.42;89.68;101418.91;6092421;23;20052;-81
2021/04/09 10:37:03;;;;;;;11.23;4.57;;;;;;;12.24;89.14;101421.47;6068980;23;20092;-82
2021/04/09 10:39:30;;;;;;;13.93;5.25;;;;;;;12.49;88.89;101424.78;6093624;23;20054;-81
2021/04/09 10:41:57;;;;;;;13.60;4.35;;;;;;;12.12;85.64;101428.13;6094544;23;20016;-81
2021/04/09 10:44:24;;;;;;;11.20;5.50;;;;;;;12.97;83.27;101439.47;6068392;23;20013;-82
2021/04/09 10:47:00;;;;;;;10.63;5.50;;;;;;;13.02;84.79;101437.47;6095238;23;20311;-82
2021/04/09 10:49:31;;;;;;;18.25;5.65;;;;;;;12.35;88.80;101429.81;6069592;23;20006;-82
2021/04/09 10:51:59;;;;;;;11.18;4.55;;;;;;;12.24;86.16;101434.72;6093932;23;20686;-82
2021/04/09 10:54:30;;;;;;;7.20;4.18;;;;;;;12.76;84.11;101422.75;6094748;23;20065;-81
2021/04/09 10:57:02;;;;;;;12.85;5.20;;;;;;;12.51;81.78;101416.78;6091873;23;20034;-82
2021/04/09 10:59:30;;;;;;;9.52;3.95;;;;;;;13.39;78.99;101425.19;6067671;23;20010;-82
2021/04/09 11:01:57;;;;;;;8.30;3.83;;;;;;;12.57;84.04;101420.03;6094549;23;20025;-82
2021/04/09 11:04:23;;;;;;;26.20;5.57;;;;;;;13.27;82.82;101410.72;6094035;23;20010;-82
2021/04/09 11:06:53;;;;;;;15.13;5.03;;;;;;;13.05;84.98;101421.44;6069560;23;20025;-82
2021/04/09 11:09:20;;;;;;;10.27;4.93;;;;;;;12.87;81.44;101424.91;6068543;23;20014;-81
2021/04/09 11:11:45;;;;;;;13.73;6.80;;;;;;;12.91;82.59;101422.06;6095063;23;20006;-81
2021/04/09 11:14:19;;;;;;;20.52;5.28;;;;;;;11.71;88.26;101416.56;6065706;23;20021;-80
2021/04/09 11:16:55;;;;;;;8.77;5.50;;;;;;;11.24;92.90;101422.75;6093704;23;20011;-82
2021/04/09 11:19:33;;;;;;;14.00;4.32;;;;;;;11.12;95.31;101425.88;6068219;23;20030;-81
2021/04/09 11:22:02;;;;;;;15.73;6.18;;;;;;;10.75;97.82;101416.66;6067969;23;20053;-81
2021/04/09 11:24:35;;;;;;;15.88;5.85;;;;;;;11.58;89.98;101426.75;6069112;23;20663;-82
2021/04/09 11:27:02;;;;;;;14.57;5.10;;;;;;;11.07;91.78;101419.88;6070066;23;20348;-81